sensor_id;sensor_type;location;lat;lon;timestamp;temperature;humidity
22838;DHT22;11585;51.450;-0.240;2023-06-14T00:01:34;21.70;99.90
22838;DHT22;11585;51.450;-0.240;2023-06-14T00:04:00;21.60;99.90
22838;DHT22;11585;51.450;-0.240;2023-06-14T00:06:28;21.60;99.90
22838;DHT22;11585;51.450;-0.240;2023-06-14T00:08:53;21.60;99.90
22838;DHT22;11585;51.450;-0.240;2023-06-14T00:18:04;21.40;99.90
22838;DHT22;11585;51.450;-0.240;2023-06-14T00:23:35;21.40;99.90
22838;DHT22;11585;51.450;-0.240;2023-06-14T00:26:01;21.30;99.90
22838;DHT22;11585;51.450;-0.240;2023-06-14T00:28:26;21.30;99.90
22838;DHT22;11585;51.450;-0.240;2023-06-14T00:31:11;21.30;99.90
22838;DHT22;11585;51.450;-0.240;2023-06-14T00:33:37;21.20;99.90
22838;DHT22;11585;51.450;-0.240;2023-06-14T00:36:02;21.20;99.90
22838;DHT22;11585;51.450;-0.240;2023-06-14T00:38:28;21.20;99.90
22838;DHT22;11585;51.450;-0.240;2023-06-14T00:41:14;21.10;99.90
22838;DHT22;11585;51.450;-0.240;2023-06-14T00:43:39;21.10;99.90
22838;DHT22;11585;51.450;-0.240;2023-06-14T00:46:05;21.00;99.90
22838;DHT22;11585;51.450;-0.240;2023-06-14T00:48:31;21.00;99.90
22838;DHT22;11585;51.450;-0.240;2023-06-14T00:54:19;21.00;99.90
22838;DHT22;11585;51.450;-0.240;2023-06-14T00:56:45;20.90;99.90
22838;DHT22;11585;51.450;-0.240;2023-06-14T00:59:11;20.90;99.90
22838;DHT22;11585;51.450;-0.240;2023-06-14T01:01:36;20.80;99.90
22838;DHT22;11585;51.450;-0.240;2023-06-14T01:04:04;20.80;99.90
22838;DHT22;11585;51.450;-0.240;2023-06-14T01:06:58;20.70;99.90
22838;DHT22;11585;51.450;-0.240;2023-06-14T01:09:44;20.70;99.90
22838;DHT22;11585;51.450;-0.240;2023-06-14T01:12:27;20.70;99.90
22838;DHT22;11585;51.450;-0.240;2023-06-14T01:14:55;20.70;99.90
22838;DHT22;11585;51.450;-0.240;2023-06-14T01:17:23;20.60;99.90
22838;DHT22;11585;51.450;-0.240;2023-06-14T01:22:55;20.50;99.90
22838;DHT22;11585;51.450;-0.240;2023-06-14T01:25:21;20.50;99.90
22838;DHT22;11585;51.450;-0.240;2023-06-14T01:27:53;20.40;99.90
22838;DHT22;11585;51.450;-0.240;2023-06-14T01:33:27;20.40;99.90
22838;DHT22;11585;51.450;-0.240;2023-06-14T01:35:53;20.40;99.90
22838;DHT22;11585;51.450;-0.240;2023-06-14T01:38:22;20.30;99.90
22838;DHT22;11585;51.450;-0.240;2023-06-14T01:40:50;20.30;99.90
22838;DHT22;11585;51.450;-0.240;2023-06-14T01:43:16;20.30;99.90
22838;DHT22;11585;51.450;-0.240;2023-06-14T01:45:45;20.20;99.90
22838;DHT22;11585;51.450;-0.240;2023-06-14T01:48:11;20.20;99.90
22838;DHT22;11585;51.450;-0.240;2023-06-14T01:50:58;20.20;99.90
22838;DHT22;11585;51.450;-0.240;2023-06-14T01:53:24;20.10;99.90
22838;DHT22;11585;51.450;-0.240;2023-06-14T01:55:49;20.10;99.90
22838;DHT22;11585;51.450;-0.240;2023-06-14T01:58:16;20.10;99.90
22838;DHT22;11585;51.450;-0.240;2023-06-14T02:04:06;20.00;99.90
22838;DHT22;11585;51.450;-0.240;2023-06-14T02:06:50;20.00;99.90
22838;DHT22;11585;51.450;-0.240;2023-06-14T02:12:38;19.90;99.90
22838;DHT22;11585;51.450;-0.240;2023-06-14T02:15:04;19.80;99.90
22838;DHT22;11585;51.450;-0.240;2023-06-14T02:17:31;19.80;99.90
22838;DHT22;11585;51.450;-0.240;2023-06-14T02:23:19;19.70;99.90
22838;DHT22;11585;51.450;-0.240;2023-06-14T02:25:45;19.70;99.90
22838;DHT22;11585;51.450;-0.240;2023-06-14T02:28:11;19.70;99.90
22838;DHT22;11585;51.450;-0.240;2023-06-14T02:30:38;19.60;99.90
22838;DHT22;11585;51.450;-0.240;2023-06-14T02:33:04;19.60;99.90
22838;DHT22;11585;51.450;-0.240;2023-06-14T02:35:30;19.40;99.90
22838;DHT22;11585;51.450;-0.240;2023-06-14T02:37:56;19.50;99.90
22838;DHT22;11585;51.450;-0.240;2023-06-14T02:44:03;19.50;99.90
22838;DHT22;11585;51.450;-0.240;2023-06-14T02:46:28;19.50;99.90
22838;DHT22;11585;51.450;-0.240;2023-06-14T02:48:57;19.50;99.90
22838;DHT22;11585;51.450;-0.240;2023-06-14T02:51:23;19.40;99.90
22838;DHT22;11585;51.450;-0.240;2023-06-14T02:53:49;19.40;99.90
22838;DHT22;11585;51.450;-0.240;2023-06-14T02:56:15;19.40;99.90
22838;DHT22;11585;51.450;-0.240;2023-06-14T02:58:43;19.30;99.90
22838;DHT22;11585;51.450;-0.240;2023-06-14T03:04:32;19.30;99.90
22838;DHT22;11585;51.450;-0.240;2023-06-14T03:07:02;19.30;99.90
22838;DHT22;11585;51.450;-0.240;2023-06-14T03:12:39;19.20;99.90
22838;DHT22;11585;51.450;-0.240;2023-06-14T03:15:05;19.20;99.90
22838;DHT22;11585;51.450;-0.240;2023-06-14T03:17:31;19.10;99.90
22838;DHT22;11585;51.450;-0.240;2023-06-14T03:20:00;19.10;99.90
22838;DHT22;11585;51.450;-0.240;2023-06-14T03:22:26;19.10;99.90
22838;DHT22;11585;51.450;-0.240;2023-06-14T03:24:52;19.10;99.90
22838;DHT22;11585;51.450;-0.240;2023-06-14T03:27:19;19.10;99.90
22838;DHT22;11585;51.450;-0.240;2023-06-14T03:29:45;19.00;99.90
22838;DHT22;11585;51.450;-0.240;2023-06-14T03:32:11;19.00;99.90
22838;DHT22;11585;51.450;-0.240;2023-06-14T03:34:36;19.00;99.90
22838;DHT22;11585;51.450;-0.240;2023-06-14T03:37:04;19.00;99.90
22838;DHT22;11585;51.450;-0.240;2023-06-14T03:46:00;18.90;99.90
22838;DHT22;11585;51.450;-0.240;2023-06-14T03:48:25;18.90;99.90
22838;DHT22;11585;51.450;-0.240;2023-06-14T03:50:52;18.90;99.90
22838;DHT22;11585;51.450;-0.240;2023-06-14T03:53:20;18.90;99.90
22838;DHT22;11585;51.450;-0.240;2023-06-14T03:55:49;18.80;99.90
22838;DHT22;11585;51.450;-0.240;2023-06-14T03:58:15;18.80;99.90
22838;DHT22;11585;51.450;-0.240;2023-06-14T04:01:02;18.80;99.90
22838;DHT22;11585;51.450;-0.240;2023-06-14T04:03:27;18.70;99.90
22838;DHT22;11585;51.450;-0.240;2023-06-14T04:05:54;18.80;99.90
22838;DHT22;11585;51.450;-0.240;2023-06-14T04:08:22;18.70;99.90
22838;DHT22;11585;51.450;-0.240;2023-06-14T04:13:36;18.70;99.90
22838;DHT22;11585;51.450;-0.240;2023-06-14T04:16:03;18.60;99.90
22838;DHT22;11585;51.450;-0.240;2023-06-14T04:18:29;18.60;99.90
22838;DHT22;11585;51.450;-0.240;2023-06-14T04:21:13;18.60;99.90
22838;DHT22;11585;51.450;-0.240;2023-06-14T04:23:39;18.60;99.90
22838;DHT22;11585;51.450;-0.240;2023-06-14T04:26:09;18.60;99.90
22838;DHT22;11585;51.450;-0.240;2023-06-14T04:28:36;18.60;99.90
22838;DHT22;11585;51.450;-0.240;2023-06-14T04:31:11;18.60;99.90
22838;DHT22;11585;51.450;-0.240;2023-06-14T04:33:37;18.60;99.90
22838;DHT22;11585;51.450;-0.240;2023-06-14T04:36:12;18.50;99.90
22838;DHT22;11585;51.450;-0.240;2023-06-14T04:38:39;18.50;99.90
22838;DHT22;11585;51.450;-0.240;2023-06-14T04:41:05;18.50;99.90
22838;DHT22;11585;51.450;-0.240;2023-06-14T04:43:31;18.40;99.90
22838;DHT22;11585;51.450;-0.240;2023-06-14T04:46:04;18.50;99.90
22838;DHT22;11585;51.450;-0.240;2023-06-14T04:48:31;18.50;99.90
22838;DHT22;11585;51.450;-0.240;2023-06-14T04:50:59;18.40;99.90
22838;DHT22;11585;51.450;-0.240;2023-06-14T04:53:24;18.40;99.90
22838;DHT22;11585;51.450;-0.240;2023-06-14T04:55:54;18.40;99.90
22838;DHT22;11585;51.450;-0.240;2023-06-14T04:58:20;18.40;99.90
22838;DHT22;11585;51.450;-0.240;2023-06-14T05:01:04;18.40;99.90
22838;DHT22;11585;51.450;-0.240;2023-06-14T05:03:30;18.40;99.90
22838;DHT22;11585;51.450;-0.240;2023-06-14T05:05:56;18.40;99.90
22838;DHT22;11585;51.450;-0.240;2023-06-14T05:08:22;18.40;99.90
22838;DHT22;11585;51.450;-0.240;2023-06-14T05:10:53;18.30;99.90
22838;DHT22;11585;51.450;-0.240;2023-06-14T05:13:19;18.30;99.90
22838;DHT22;11585;51.450;-0.240;2023-06-14T05:15:44;18.30;99.90
22838;DHT22;11585;51.450;-0.240;2023-06-14T05:18:13;18.30;99.90
22838;DHT22;11585;51.450;-0.240;2023-06-14T05:21:01;18.30;99.90
22838;DHT22;11585;51.450;-0.240;2023-06-14T05:23:27;18.30;99.90
22838;DHT22;11585;51.450;-0.240;2023-06-14T05:25:53;18.30;99.90
22838;DHT22;11585;51.450;-0.240;2023-06-14T05:28:18;18.30;99.90
22838;DHT22;11585;51.450;-0.240;2023-06-14T05:30:44;18.30;99.90
22838;DHT22;11585;51.450;-0.240;2023-06-14T05:33:10;18.20;99.90
22838;DHT22;11585;51.450;-0.240;2023-06-14T05:35:36;18.30;99.90
22838;DHT22;11585;51.450;-0.240;2023-06-14T05:38:03;18.30;99.90
22838;DHT22;11585;51.450;-0.240;2023-06-14T05:40:29;18.20;99.90
22838;DHT22;11585;51.450;-0.240;2023-06-14T05:42:54;18.30;99.90
22838;DHT22;11585;51.450;-0.240;2023-06-14T05:45:20;18.20;99.90
22838;DHT22;11585;51.450;-0.240;2023-06-14T05:47:46;18.20;99.90
22838;DHT22;11585;51.450;-0.240;2023-06-14T05:50:32;18.30;99.90
22838;DHT22;11585;51.450;-0.240;2023-06-14T05:52:58;18.30;99.90
22838;DHT22;11585;51.450;-0.240;2023-06-14T05:55:23;18.30;99.90
22838;DHT22;11585;51.450;-0.240;2023-06-14T05:57:49;18.30;99.90
22838;DHT22;11585;51.450;-0.240;2023-06-14T06:00:35;18.40;99.90
22838;DHT22;11585;51.450;-0.240;2023-06-14T06:03:01;18.50;99.90
22838;DHT22;11585;51.450;-0.240;2023-06-14T06:05:27;18.40;99.90
22838;DHT22;11585;51.450;-0.240;2023-06-14T06:07:52;18.50;99.90
22838;DHT22;11585;51.450;-0.240;2023-06-14T06:10:39;18.50;99.90
22838;DHT22;11585;51.450;-0.240;2023-06-14T06:13:05;18.60;99.90
22838;DHT22;11585;51.450;-0.240;2023-06-14T06:15:31;18.40;99.90
22838;DHT22;11585;51.450;-0.240;2023-06-14T06:17:56;18.60;99.90
22838;DHT22;11585;51.450;-0.240;2023-06-14T06:20:41;18.60;99.90
22838;DHT22;11585;51.450;-0.240;2023-06-14T06:23:07;18.70;99.90
22838;DHT22;11585;51.450;-0.240;2023-06-14T06:25:34;18.70;99.90
22838;DHT22;11585;51.450;-0.240;2023-06-14T06:27:59;18.70;99.90
22838;DHT22;11585;51.450;-0.240;2023-06-14T06:30:25;18.80;99.90
22838;DHT22;11585;51.450;-0.240;2023-06-14T06:32:52;18.80;99.90
22838;DHT22;11585;51.450;-0.240;2023-06-14T06:35:18;18.90;99.90
22838;DHT22;11585;51.450;-0.240;2023-06-14T06:37:44;18.90;99.90
22838;DHT22;11585;51.450;-0.240;2023-06-14T06:40:11;18.90;99.90
22838;DHT22;11585;51.450;-0.240;2023-06-14T06:42:37;19.00;99.90
22838;DHT22;11585;51.450;-0.240;2023-06-14T06:45:04;19.00;99.90
22838;DHT22;11585;51.450;-0.240;2023-06-14T06:47:29;19.10;99.90
22838;DHT22;11585;51.450;-0.240;2023-06-14T06:52:58;19.20;99.90
22838;DHT22;11585;51.450;-0.240;2023-06-14T06:55:24;19.30;99.90
22838;DHT22;11585;51.450;-0.240;2023-06-14T06:57:50;19.40;99.90
22838;DHT22;11585;51.450;-0.240;2023-06-14T07:00:18;19.40;99.90
22838;DHT22;11585;51.450;-0.240;2023-06-14T07:02:44;19.50;99.90
22838;DHT22;11585;51.450;-0.240;2023-06-14T07:05:13;19.60;99.90
22838;DHT22;11585;51.450;-0.240;2023-06-14T07:07:38;19.60;99.90
22838;DHT22;11585;51.450;-0.240;2023-06-14T07:10:23;19.70;99.90
22838;DHT22;11585;51.450;-0.240;2023-06-14T07:12:53;19.80;99.90
22838;DHT22;11585;51.450;-0.240;2023-06-14T07:15:18;19.80;99.90
22838;DHT22;11585;51.450;-0.240;2023-06-14T07:17:44;19.90;99.90
22838;DHT22;11585;51.450;-0.240;2023-06-14T07:20:11;19.90;99.90
22838;DHT22;11585;51.450;-0.240;2023-06-14T07:22:38;20.00;99.90
22838;DHT22;11585;51.450;-0.240;2023-06-14T07:25:06;20.10;99.90
22838;DHT22;11585;51.450;-0.240;2023-06-14T07:27:34;20.10;99.90
22838;DHT22;11585;51.450;-0.240;2023-06-14T07:30:00;20.20;99.90
22838;DHT22;11585;51.450;-0.240;2023-06-14T07:32:25;20.20;99.90
22838;DHT22;11585;51.450;-0.240;2023-06-14T07:34:51;20.30;99.90
22838;DHT22;11585;51.450;-0.240;2023-06-14T07:37:16;20.30;99.90
22838;DHT22;11585;51.450;-0.240;2023-06-14T07:39:44;20.30;99.90
22838;DHT22;11585;51.450;-0.240;2023-06-14T07:42:10;20.40;99.90
22838;DHT22;11585;51.450;-0.240;2023-06-14T07:44:36;20.40;99.90
22838;DHT22;11585;51.450;-0.240;2023-06-14T07:47:01;20.50;99.90
22838;DHT22;11585;51.450;-0.240;2023-06-14T07:49:46;20.40;99.90
22838;DHT22;11585;51.450;-0.240;2023-06-14T07:52:12;20.60;99.90
22838;DHT22;11585;51.450;-0.240;2023-06-14T07:54:38;20.60;99.90
22838;DHT22;11585;51.450;-0.240;2023-06-14T07:57:06;20.60;99.90
22838;DHT22;11585;51.450;-0.240;2023-06-14T07:59:32;20.70;99.90
22838;DHT22;11585;51.450;-0.240;2023-06-14T08:01:58;20.70;99.90
22838;DHT22;11585;51.450;-0.240;2023-06-14T08:04:24;20.70;99.90
22838;DHT22;11585;51.450;-0.240;2023-06-14T08:06:50;20.80;99.90
22838;DHT22;11585;51.450;-0.240;2023-06-14T08:09:19;20.80;99.90
22838;DHT22;11585;51.450;-0.240;2023-06-14T08:11:44;20.90;99.90
22838;DHT22;11585;51.450;-0.240;2023-06-14T08:14:10;20.90;99.90
22838;DHT22;11585;51.450;-0.240;2023-06-14T08:16:36;20.90;99.90
22838;DHT22;11585;51.450;-0.240;2023-06-14T08:19:04;21.00;99.90
22838;DHT22;11585;51.450;-0.240;2023-06-14T08:21:30;21.00;99.90
22838;DHT22;11585;51.450;-0.240;2023-06-14T08:23:59;21.00;99.90
22838;DHT22;11585;51.450;-0.240;2023-06-14T08:26:25;21.10;99.90
22838;DHT22;11585;51.450;-0.240;2023-06-14T08:28:59;21.10;99.90
22838;DHT22;11585;51.450;-0.240;2023-06-14T08:31:25;21.10;99.90
22838;DHT22;11585;51.450;-0.240;2023-06-14T08:33:52;21.20;99.90
22838;DHT22;11585;51.450;-0.240;2023-06-14T08:36:18;21.20;99.90
22838;DHT22;11585;51.450;-0.240;2023-06-14T08:38:44;21.20;99.90
22838;DHT22;11585;51.450;-0.240;2023-06-14T08:41:12;21.30;99.90
22838;DHT22;11585;51.450;-0.240;2023-06-14T08:43:38;21.30;99.90
22838;DHT22;11585;51.450;-0.240;2023-06-14T08:46:06;21.30;99.90
22838;DHT22;11585;51.450;-0.240;2023-06-14T08:48:34;21.30;99.90
22838;DHT22;11585;51.450;-0.240;2023-06-14T08:51:20;21.40;99.90
22838;DHT22;11585;51.450;-0.240;2023-06-14T08:53:55;21.40;99.90
22838;DHT22;11585;51.450;-0.240;2023-06-14T08:56:32;21.50;99.90
22838;DHT22;11585;51.450;-0.240;2023-06-14T08:58:59;21.50;99.90
22838;DHT22;11585;51.450;-0.240;2023-06-14T09:01:32;21.60;99.90
22838;DHT22;11585;51.450;-0.240;2023-06-14T09:03:59;21.60;99.90
22838;DHT22;11585;51.450;-0.240;2023-06-14T09:06:25;21.60;99.90
22838;DHT22;11585;51.450;-0.240;2023-06-14T09:08:54;21.70;99.90
22838;DHT22;11585;51.450;-0.240;2023-06-14T09:11:23;21.70;99.90
22838;DHT22;11585;51.450;-0.240;2023-06-14T09:13:53;21.80;99.90
22838;DHT22;11585;51.450;-0.240;2023-06-14T09:16:18;21.80;99.90
22838;DHT22;11585;51.450;-0.240;2023-06-14T09:18:46;21.80;99.90
22838;DHT22;11585;51.450;-0.240;2023-06-14T09:23:48;21.90;99.90
22838;DHT22;11585;51.450;-0.240;2023-06-14T09:26:18;22.00;99.90
22838;DHT22;11585;51.450;-0.240;2023-06-14T09:28:50;22.00;99.90
22838;DHT22;11585;51.450;-0.240;2023-06-14T09:31:18;22.00;99.90
22838;DHT22;11585;51.450;-0.240;2023-06-14T09:33:45;22.10;99.90
22838;DHT22;11585;51.450;-0.240;2023-06-14T09:36:26;22.10;99.90
22838;DHT22;11585;51.450;-0.240;2023-06-14T09:38:59;22.20;99.90
22838;DHT22;11585;51.450;-0.240;2023-06-14T09:41:40;22.30;99.90
22838;DHT22;11585;51.450;-0.240;2023-06-14T09:44:07;22.30;99.90
22838;DHT22;11585;51.450;-0.240;2023-06-14T09:46:33;22.30;99.90
22838;DHT22;11585;51.450;-0.240;2023-06-14T09:49:00;22.40;99.90
22838;DHT22;11585;51.450;-0.240;2023-06-14T09:51:27;22.40;99.90
22838;DHT22;11585;51.450;-0.240;2023-06-14T09:53:59;22.50;99.90
22838;DHT22;11585;51.450;-0.240;2023-06-14T09:56:31;22.50;99.90
22838;DHT22;11585;51.450;-0.240;2023-06-14T09:58:59;22.60;99.90
22838;DHT22;11585;51.450;-0.240;2023-06-14T10:01:26;22.60;99.90
22838;DHT22;11585;51.450;-0.240;2023-06-14T10:03:58;22.60;99.90
22838;DHT22;11585;51.450;-0.240;2023-06-14T10:06:26;22.70;99.90
22838;DHT22;11585;51.450;-0.240;2023-06-14T10:08:57;22.70;99.90
22838;DHT22;11585;51.450;-0.240;2023-06-14T10:11:23;22.80;99.90
22838;DHT22;11585;51.450;-0.240;2023-06-14T10:13:50;22.80;99.90
22838;DHT22;11585;51.450;-0.240;2023-06-14T10:16:44;22.90;99.90
22838;DHT22;11585;51.450;-0.240;2023-06-14T10:19:18;22.90;99.90
22838;DHT22;11585;51.450;-0.240;2023-06-14T10:22:12;23.00;99.90
22838;DHT22;11585;51.450;-0.240;2023-06-14T10:24:45;23.00;99.90
22838;DHT22;11585;51.450;-0.240;2023-06-14T10:27:13;23.10;99.90
22838;DHT22;11585;51.450;-0.240;2023-06-14T10:32:27;23.10;99.90
22838;DHT22;11585;51.450;-0.240;2023-06-14T10:34:58;23.20;99.90
22838;DHT22;11585;51.450;-0.240;2023-06-14T10:37:24;23.30;99.90
22838;DHT22;11585;51.450;-0.240;2023-06-14T10:39:50;23.30;99.90
22838;DHT22;11585;51.450;-0.240;2023-06-14T10:42:17;23.30;99.90
22838;DHT22;11585;51.450;-0.240;2023-06-14T10:47:25;23.40;99.90
22838;DHT22;11585;51.450;-0.240;2023-06-14T10:50:11;23.50;99.90
22838;DHT22;11585;51.450;-0.240;2023-06-14T10:52:42;23.50;99.90
22838;DHT22;11585;51.450;-0.240;2023-06-14T10:55:12;23.60;99.90
22838;DHT22;11585;51.450;-0.240;2023-06-14T10:57:45;23.60;99.90
22838;DHT22;11585;51.450;-0.240;2023-06-14T11:00:13;23.70;99.90
22838;DHT22;11585;51.450;-0.240;2023-06-14T11:05:52;23.70;99.90
22838;DHT22;11585;51.450;-0.240;2023-06-14T11:11:31;23.80;99.90
22838;DHT22;11585;51.450;-0.240;2023-06-14T11:13:59;23.90;99.90
22838;DHT22;11585;51.450;-0.240;2023-06-14T11:16:31;23.90;99.90
22838;DHT22;11585;51.450;-0.240;2023-06-14T11:19:01;24.00;99.90
22838;DHT22;11585;51.450;-0.240;2023-06-14T11:21:28;24.00;99.90
22838;DHT22;11585;51.450;-0.240;2023-06-14T11:23:57;24.00;99.90
22838;DHT22;11585;51.450;-0.240;2023-06-14T11:26:30;24.10;99.90
22838;DHT22;11585;51.450;-0.240;2023-06-14T11:28:58;24.20;99.90
22838;DHT22;11585;51.450;-0.240;2023-06-14T11:31:25;24.20;99.90
22838;DHT22;11585;51.450;-0.240;2023-06-14T11:33:56;24.20;99.90
22838;DHT22;11585;51.450;-0.240;2023-06-14T11:36:31;24.30;99.90
22838;DHT22;11585;51.450;-0.240;2023-06-14T11:41:25;24.40;99.90
22838;DHT22;11585;51.450;-0.240;2023-06-14T11:43:54;24.50;99.90
22838;DHT22;11585;51.450;-0.240;2023-06-14T11:46:25;24.50;99.90
22838;DHT22;11585;51.450;-0.240;2023-06-14T11:48:51;24.50;99.90
22838;DHT22;11585;51.450;-0.240;2023-06-14T11:51:18;24.60;99.90
22838;DHT22;11585;51.450;-0.240;2023-06-14T11:53:49;24.60;99.90
22838;DHT22;11585;51.450;-0.240;2023-06-14T11:56:15;24.70;99.90
22838;DHT22;11585;51.450;-0.240;2023-06-14T11:58:43;24.70;99.90
22838;DHT22;11585;51.450;-0.240;2023-06-14T12:01:09;24.80;99.90
22838;DHT22;11585;51.450;-0.240;2023-06-14T12:03:34;24.80;99.90
22838;DHT22;11585;51.450;-0.240;2023-06-14T12:06:05;24.90;99.90
22838;DHT22;11585;51.450;-0.240;2023-06-14T12:08:36;24.90;99.90
22838;DHT22;11585;51.450;-0.240;2023-06-14T12:11:12;24.90;99.90
22838;DHT22;11585;51.450;-0.240;2023-06-14T12:13:39;25.00;99.90
22838;DHT22;11585;51.450;-0.240;2023-06-14T12:16:11;25.00;99.90
22838;DHT22;11585;51.450;-0.240;2023-06-14T12:18:39;25.10;99.90
22838;DHT22;11585;51.450;-0.240;2023-06-14T12:21:05;25.10;99.90
22838;DHT22;11585;51.450;-0.240;2023-06-14T12:23:49;25.10;99.90
22838;DHT22;11585;51.450;-0.240;2023-06-14T12:26:16;25.20;99.90
22838;DHT22;11585;51.450;-0.240;2023-06-14T12:28:44;25.20;99.90
22838;DHT22;11585;51.450;-0.240;2023-06-14T12:31:11;25.30;99.90
22838;DHT22;11585;51.450;-0.240;2023-06-14T12:33:38;25.30;99.90
22838;DHT22;11585;51.450;-0.240;2023-06-14T12:36:05;25.30;99.90
22838;DHT22;11585;51.450;-0.240;2023-06-14T12:38:32;25.40;99.90
22838;DHT22;11585;51.450;-0.240;2023-06-14T12:40:58;25.40;99.90
22838;DHT22;11585;51.450;-0.240;2023-06-14T12:43:42;25.40;99.90
22838;DHT22;11585;51.450;-0.240;2023-06-14T12:46:08;25.50;99.90
22838;DHT22;11585;51.450;-0.240;2023-06-14T12:48:34;25.50;99.90
22838;DHT22;11585;51.450;-0.240;2023-06-14T12:50:59;25.50;99.90
22838;DHT22;11585;51.450;-0.240;2023-06-14T12:53:26;25.60;99.90
22838;DHT22;11585;51.450;-0.240;2023-06-14T12:55:52;25.60;99.90
22838;DHT22;11585;51.450;-0.240;2023-06-14T12:58:17;25.60;99.90
22838;DHT22;11585;51.450;-0.240;2023-06-14T13:00:45;25.60;99.90
22838;DHT22;11585;51.450;-0.240;2023-06-14T13:06:23;25.60;99.90
22838;DHT22;11585;51.450;-0.240;2023-06-14T13:08:59;25.60;99.90
22838;DHT22;11585;51.450;-0.240;2023-06-14T13:11:29;25.70;99.90
22838;DHT22;11585;51.450;-0.240;2023-06-14T13:13:55;25.70;99.90
22838;DHT22;11585;51.450;-0.240;2023-06-14T13:16:20;25.70;99.90
22838;DHT22;11585;51.450;-0.240;2023-06-14T13:18:46;25.70;99.90
22838;DHT22;11585;51.450;-0.240;2023-06-14T13:21:12;25.70;99.90
22838;DHT22;11585;51.450;-0.240;2023-06-14T13:23:39;25.80;99.90
22838;DHT22;11585;51.450;-0.240;2023-06-14T13:26:05;25.80;99.90
22838;DHT22;11585;51.450;-0.240;2023-06-14T13:28:31;25.80;99.90
22838;DHT22;11585;51.450;-0.240;2023-06-14T13:31:06;25.80;99.90
22838;DHT22;11585;51.450;-0.240;2023-06-14T13:33:35;25.80;99.90
22838;DHT22;11585;51.450;-0.240;2023-06-14T13:36:00;25.80;99.90
22838;DHT22;11585;51.450;-0.240;2023-06-14T13:38:26;25.90;99.90
22838;DHT22;11585;51.450;-0.240;2023-06-14T13:40:52;25.90;99.90
22838;DHT22;11585;51.450;-0.240;2023-06-14T13:43:17;25.90;99.90
22838;DHT22;11585;51.450;-0.240;2023-06-14T13:45:48;25.90;99.90
22838;DHT22;11585;51.450;-0.240;2023-06-14T13:48:16;25.90;99.90
22838;DHT22;11585;51.450;-0.240;2023-06-14T13:51:15;26.00;99.90
22838;DHT22;11585;51.450;-0.240;2023-06-14T13:53:40;26.00;99.90
22838;DHT22;11585;51.450;-0.240;2023-06-14T13:56:11;26.00;99.90
22838;DHT22;11585;51.450;-0.240;2023-06-14T13:58:42;26.00;99.90
22838;DHT22;11585;51.450;-0.240;2023-06-14T14:01:11;26.00;99.90
22838;DHT22;11585;51.450;-0.240;2023-06-14T14:03:58;26.00;99.90
22838;DHT22;11585;51.450;-0.240;2023-06-14T14:06:24;26.10;99.90
22838;DHT22;11585;51.450;-0.240;2023-06-14T14:08:54;26.10;99.90
22838;DHT22;11585;51.450;-0.240;2023-06-14T14:11:33;26.10;99.90
22838;DHT22;11585;51.450;-0.240;2023-06-14T14:14:07;26.10;99.90
22838;DHT22;11585;51.450;-0.240;2023-06-14T14:16:41;26.20;99.90
22838;DHT22;11585;51.450;-0.240;2023-06-14T14:19:29;26.20;99.90
22838;DHT22;11585;51.450;-0.240;2023-06-14T14:21:59;26.20;99.90
22838;DHT22;11585;51.450;-0.240;2023-06-14T14:24:27;26.20;99.90
22838;DHT22;11585;51.450;-0.240;2023-06-14T14:26:55;26.30;99.90
22838;DHT22;11585;51.450;-0.240;2023-06-14T14:29:25;26.30;99.90
22838;DHT22;11585;51.450;-0.240;2023-06-14T14:34:41;26.30;99.90
22838;DHT22;11585;51.450;-0.240;2023-06-14T14:37:09;26.30;99.90
22838;DHT22;11585;51.450;-0.240;2023-06-14T14:39:46;26.40;99.90
22838;DHT22;11585;51.450;-0.240;2023-06-14T14:42:38;26.30;99.90
22838;DHT22;11585;51.450;-0.240;2023-06-14T14:45:06;26.40;99.90
22838;DHT22;11585;51.450;-0.240;2023-06-14T14:50:09;26.40;99.90
22838;DHT22;11585;51.450;-0.240;2023-06-14T14:52:37;26.40;99.90
22838;DHT22;11585;51.450;-0.240;2023-06-14T14:55:08;26.40;99.90
22838;DHT22;11585;51.450;-0.240;2023-06-14T14:57:34;26.40;99.90
22838;DHT22;11585;51.450;-0.240;2023-06-14T15:00:02;26.40;99.90
22838;DHT22;11585;51.450;-0.240;2023-06-14T15:02:29;26.40;99.90
22838;DHT22;11585;51.450;-0.240;2023-06-14T15:04:55;26.40;99.90
22838;DHT22;11585;51.450;-0.240;2023-06-14T15:07:28;26.40;99.90
22838;DHT22;11585;51.450;-0.240;2023-06-14T15:09:55;26.40;99.90
22838;DHT22;11585;51.450;-0.240;2023-06-14T15:12:21;26.40;99.90
22838;DHT22;11585;51.450;-0.240;2023-06-14T15:14:50;26.40;99.90
22838;DHT22;11585;51.450;-0.240;2023-06-14T15:17:17;26.50;99.90
22838;DHT22;11585;51.450;-0.240;2023-06-14T15:19:44;26.50;99.90
22838;DHT22;11585;51.450;-0.240;2023-06-14T15:22:10;26.50;99.90
22838;DHT22;11585;51.450;-0.240;2023-06-14T15:24:36;26.50;99.90
22838;DHT22;11585;51.450;-0.240;2023-06-14T15:27:01;26.50;99.90
22838;DHT22;11585;51.450;-0.240;2023-06-14T15:29:28;26.50;99.90
22838;DHT22;11585;51.450;-0.240;2023-06-14T15:31:53;26.50;99.90
22838;DHT22;11585;51.450;-0.240;2023-06-14T15:34:20;26.50;99.90
22838;DHT22;11585;51.450;-0.240;2023-06-14T15:36:46;26.50;99.90
22838;DHT22;11585;51.450;-0.240;2023-06-14T15:39:12;26.50;99.90
22838;DHT22;11585;51.450;-0.240;2023-06-14T15:41:37;26.50;99.90
22838;DHT22;11585;51.450;-0.240;2023-06-14T15:44:03;26.50;99.90
22838;DHT22;11585;51.450;-0.240;2023-06-14T15:46:29;26.50;99.90
22838;DHT22;11585;51.450;-0.240;2023-06-14T15:48:55;26.50;99.90
22838;DHT22;11585;51.450;-0.240;2023-06-14T15:51:20;26.50;99.90
22838;DHT22;11585;51.450;-0.240;2023-06-14T15:53:46;26.50;99.90
22838;DHT22;11585;51.450;-0.240;2023-06-14T15:56:11;26.50;99.90
22838;DHT22;11585;51.450;-0.240;2023-06-14T15:58:37;26.50;99.90
22838;DHT22;11585;51.450;-0.240;2023-06-14T16:01:03;26.50;99.90
22838;DHT22;11585;51.450;-0.240;2023-06-14T16:03:30;26.50;99.90
22838;DHT22;11585;51.450;-0.240;2023-06-14T16:05:56;26.50;99.90
22838;DHT22;11585;51.450;-0.240;2023-06-14T16:08:21;26.50;99.90
22838;DHT22;11585;51.450;-0.240;2023-06-14T16:10:47;26.50;99.90
22838;DHT22;11585;51.450;-0.240;2023-06-14T16:13:13;26.50;99.90
22838;DHT22;11585;51.450;-0.240;2023-06-14T16:15:39;26.50;99.90
22838;DHT22;11585;51.450;-0.240;2023-06-14T16:18:04;26.50;99.90
22838;DHT22;11585;51.450;-0.240;2023-06-14T16:20:30;26.50;99.90
22838;DHT22;11585;51.450;-0.240;2023-06-14T16:22:55;26.50;99.90
22838;DHT22;11585;51.450;-0.240;2023-06-14T16:25:21;26.50;99.90
22838;DHT22;11585;51.450;-0.240;2023-06-14T16:27:47;26.50;99.90
22838;DHT22;11585;51.450;-0.240;2023-06-14T16:30:12;26.50;99.90
22838;DHT22;11585;51.450;-0.240;2023-06-14T16:32:38;26.50;99.90
22838;DHT22;11585;51.450;-0.240;2023-06-14T16:35:04;26.50;99.90
22838;DHT22;11585;51.450;-0.240;2023-06-14T16:37:30;26.50;99.90
22838;DHT22;11585;51.450;-0.240;2023-06-14T16:39:55;26.50;99.90
22838;DHT22;11585;51.450;-0.240;2023-06-14T16:42:23;26.50;99.90